createdAt,value
2018-09-19T00:01:51.262Z,67.55
2018-09-19T00:04:20.476Z,67.90
2018-09-19T00:06:49.529Z,67.50
2018-09-19T00:09:18.528Z,67.88
2018-09-19T00:11:47.716Z,68.34
2018-09-19T00:14:16.716Z,68.41
2018-09-19T00:16:45.711Z,69.26
2018-09-19T00:19:14.814Z,69.13
2018-09-19T00:21:43.886Z,68.69
2018-09-19T00:24:12.893Z,68.87
2018-09-19T00:26:41.893Z,69.77
2018-09-19T00:29:10.924Z,69.96
2018-09-19T00:31:39.950Z,69.92
2018-09-19T00:34:08.962Z,69.16
2018-09-19T00:36:37.964Z,69.48
2018-09-19T00:39:07.999Z,70.08
2018-09-19T00:41:37.165Z,69.73
2018-09-19T00:44:06.205Z,69.99
2018-09-19T00:46:35.175Z,70.57
2018-09-19T00:49:04.258Z,70.85
2018-09-19T00:51:33.249Z,70.50
2018-09-19T00:54:02.258Z,69.86
2018-09-19T00:56:31.299Z,69.91
2018-09-19T00:59:00.269Z,70.48
2018-09-19T01:01:29.305Z,69.99
2018-09-19T01:03:58.305Z,70.46
2018-09-19T01:06:27.516Z,70.97
2018-09-19T01:08:56.522Z,71.63
2018-09-19T01:11:25.522Z,70.82
2018-09-19T01:13:54.539Z,72.13
2018-09-19T01:16:23.547Z,71.21
2018-09-19T01:18:52.552Z,71.40
2018-09-19T01:21:21.550Z,71.74
2018-09-19T01:23:50.554Z,71.77
2018-09-19T01:26:19.549Z,71.45
2018-09-19T01:28:48.579Z,71.43
2018-09-19T01:31:17.565Z,71.42
2018-09-19T01:33:46.582Z,71.22
2018-09-19T01:36:15.570Z,71.68
2018-09-19T01:38:44.887Z,71.94
2018-09-19T01:41:13.869Z,72.08
2018-09-19T01:43:42.881Z,72.02
2018-09-19T01:46:11.855Z,72.11
2018-09-19T01:48:40.877Z,72.68
2018-09-19T01:51:09.922Z,72.79
2018-09-19T01:53:38.941Z,73.05
2018-09-19T01:56:07.930Z,72.70
2018-09-19T01:58:36.931Z,72.75
2018-09-19T02:01:05.934Z,72.72
2018-09-19T02:03:34.999Z,72.60
2018-09-19T02:06:04.118Z,73.27
2018-09-19T02:08:33.126Z,72.87
2018-09-19T02:11:02.130Z,73.29
2018-09-19T02:13:31.229Z,72.33
2018-09-19T02:16:00.170Z,72.58
2018-09-19T02:18:29.358Z,72.27
2018-09-19T02:20:58.359Z,73.02
2018-09-19T02:23:27.376Z,72.71
2018-09-19T02:25:56.539Z,73.19
2018-09-19T02:28:25.553Z,72.70
2018-09-19T02:30:54.638Z,72.24
2018-09-19T02:33:23.625Z,72.35
2018-09-19T02:35:52.631Z,72.72
2018-09-19T02:38:21.638Z,73.31
2018-09-19T02:40:50.751Z,73.76
2018-09-19T02:43:19.783Z,73.41
2018-09-19T02:45:48.804Z,73.80
2018-09-19T02:48:17.792Z,73.37
2018-09-19T02:50:46.799Z,73.15
2018-09-19T02:53:15.793Z,73.63
2018-09-19T02:55:44.795Z,73.95
2018-09-19T02:58:13.792Z,73.70
2018-09-19T03:00:42.888Z,74.33
2018-09-19T03:03:11.883Z,73.50
2018-09-19T03:05:40.887Z,73.12
2018-09-19T03:08:09.907Z,73.17
2018-09-19T03:10:38.928Z,73.24
2018-09-19T03:13:07.980Z,73.62
2018-09-19T03:15:37.003Z,73.74
2018-09-19T03:18:06.104Z,73.93
2018-09-19T03:20:35.107Z,74.43
2018-09-19T03:23:04.107Z,74.32
2018-09-19T03:25:33.127Z,74.62
2018-09-19T03:28:02.119Z,74.68
2018-09-19T03:30:31.319Z,74.51
2018-09-19T03:33:00.508Z,74.46
2018-09-19T03:35:29.523Z,74.42
2018-09-19T03:37:58.569Z,74.58
2018-09-19T03:40:27.675Z,74.47
2018-09-19T03:42:56.765Z,74.81
2018-09-19T03:45:26.561Z,74.79
2018-09-19T03:47:55.560Z,74.64
2018-09-19T03:50:24.595Z,74.67
2018-09-19T03:52:53.611Z,75.24
2018-09-19T03:55:22.618Z,75.45
2018-09-19T03:57:51.631Z,75.24
2018-09-19T04:00:20.634Z,74.67
2018-09-19T04:02:49.686Z,74.65
2018-09-19T04:05:18.696Z,74.80
2018-09-19T04:07:47.689Z,74.99
2018-09-19T04:10:16.740Z,74.25
2018-09-19T04:12:45.744Z,74.68
2018-09-19T04:15:14.757Z,74.99
2018-09-19T04:17:43.800Z,75.30
2018-09-19T04:20:12.761Z,75.04
2018-09-19T04:22:41.844Z,75.38
2018-09-19T04:25:10.869Z,75.62
2018-09-19T04:27:39.862Z,75.62
2018-09-19T04:30:08.879Z,75.81
2018-09-19T04:32:37.873Z,75.89
2018-09-19T04:35:06.895Z,76.07
2018-09-19T04:37:36.559Z,76.24
2018-09-19T04:40:05.776Z,77.63
2018-09-19T04:42:34.841Z,76.79
2018-09-19T04:45:03.891Z,76.43
2018-09-19T04:47:32.859Z,76.44
2018-09-19T04:50:01.891Z,76.97
2018-09-19T04:52:34.285Z,77.16
2018-09-19T04:55:04.238Z,77.22
2018-09-19T04:57:33.250Z,77.44
2018-09-19T05:00:02.254Z,77.49
2018-09-19T05:02:31.388Z,77.89
2018-09-19T05:05:00.390Z,78.04
2018-09-19T05:07:29.418Z,78.06
2018-09-19T05:09:58.417Z,77.81
2018-09-19T05:12:27.460Z,78.04
2018-09-19T05:14:56.460Z,78.26
2018-09-19T05:17:25.463Z,78.24
2018-09-19T05:19:54.448Z,78.24
2018-09-19T05:22:23.457Z,77.96
2018-09-19T05:24:52.517Z,77.74
2018-09-19T05:27:21.509Z,79.11
2018-09-19T05:29:50.507Z,77.80
2018-09-19T05:32:19.528Z,77.96
2018-09-19T05:34:48.830Z,77.85
2018-09-19T05:37:17.712Z,77.97
2018-09-19T05:39:46.707Z,78.35
2018-09-19T05:42:15.721Z,77.88
2018-09-19T05:44:44.698Z,78.04
2018-09-19T05:47:13.793Z,77.99
2018-09-19T05:49:42.819Z,78.31
2018-09-19T05:52:11.840Z,77.89
2018-09-19T05:54:40.900Z,78.30
2018-09-19T05:57:09.866Z,78.30
2018-09-19T05:59:38.954Z,78.24
2018-09-19T06:02:08.055Z,78.08
2018-09-19T06:04:37.042Z,77.92
2018-09-19T06:07:06.154Z,77.69
2018-09-19T06:09:35.154Z,77.66
2018-09-19T06:12:04.167Z,77.63
2018-09-19T06:14:33.489Z,77.12
2018-09-19T06:17:02.542Z,76.79
2018-09-19T06:19:31.529Z,76.63
2018-09-19T06:22:00.591Z,76.54
2018-09-19T06:24:29.579Z,76.47
2018-09-19T06:26:58.676Z,76.00
2018-09-19T06:29:27.630Z,75.75
2018-09-19T06:31:56.698Z,76.11
2018-09-19T06:34:25.709Z,75.54
2018-09-19T06:36:54.986Z,74.43
2018-09-19T06:39:23.963Z,74.26
2018-09-19T06:41:52.963Z,74.48
2018-09-19T06:44:22.077Z,74.67
2018-09-19T06:46:51.133Z,73.89
2018-09-19T06:49:20.069Z,73.60
2018-09-19T06:51:49.103Z,72.83
2018-09-19T06:54:18.087Z,73.15
2018-09-19T06:56:47.305Z,72.43
2018-09-19T06:59:16.306Z,71.43
2018-09-19T07:01:45.334Z,71.57
2018-09-19T07:04:14.441Z,69.87
2018-09-19T07:06:43.521Z,70.27
2018-09-19T07:09:12.538Z,70.24
2018-09-19T07:11:41.622Z,70.24
2018-09-19T07:14:10.632Z,69.02
2018-09-19T07:16:39.699Z,68.89
2018-09-19T07:19:08.827Z,68.38
2018-09-19T07:21:37.838Z,68.41
2018-09-19T07:24:06.831Z,67.82
2018-09-19T07:26:35.946Z,67.53
2018-09-19T07:29:05.278Z,69.04
2018-09-19T07:31:34.275Z,67.60
2018-09-19T07:34:03.307Z,65.62
2018-09-19T07:36:32.302Z,66.19
2018-09-19T07:39:01.399Z,65.97
2018-09-19T07:41:30.424Z,63.52
2018-09-19T07:43:59.436Z,65.78
2018-09-19T07:46:28.537Z,64.56
2018-09-19T07:48:57.497Z,64.16
2018-09-19T07:51:26.493Z,62.81
2018-09-19T07:53:55.590Z,63.80
2018-09-19T07:56:24.621Z,63.03
2018-09-19T07:58:53.606Z,62.69
2018-09-19T08:01:22.676Z,61.37
2018-09-19T08:03:51.604Z,61.55
2018-09-19T08:06:20.597Z,63.50
2018-09-19T08:08:49.606Z,60.55
2018-09-19T08:11:18.601Z,60.63
2018-09-19T08:13:48.792Z,59.45
2018-09-19T08:16:17.782Z,59.82
2018-09-19T08:18:46.785Z,60.98
2018-09-19T08:21:15.784Z,59.75
2018-09-19T08:23:44.791Z,59.35
2018-09-19T08:26:13.782Z,58.58
2018-09-19T08:28:42.910Z,59.40
2018-09-19T08:31:11.915Z,57.22
2018-09-19T08:33:40.915Z,56.80
2018-09-19T08:36:09.975Z,56.52
2018-09-19T08:38:38.992Z,55.31
2018-09-19T08:41:08.103Z,55.69
2018-09-19T08:43:37.104Z,56.03
2018-09-19T08:46:06.166Z,55.36
2018-09-19T08:48:35.322Z,55.73
2018-09-19T08:51:04.287Z,54.99
2018-09-19T08:53:33.349Z,54.88
2018-09-19T08:56:02.390Z,54.12
2018-09-19T08:58:31.468Z,55.38
2018-09-19T09:01:00.563Z,55.04
2018-09-19T09:03:29.562Z,54.19
2018-09-19T09:05:58.568Z,55.61
2018-09-19T09:08:27.590Z,53.84
2018-09-19T09:10:56.583Z,52.92
2018-09-19T09:13:25.594Z,53.02
2018-09-19T09:15:54.686Z,53.29
2018-09-19T09:18:23.723Z,51.96
2018-09-19T09:20:52.815Z,51.69
2018-09-19T09:23:21.893Z,52.20
2018-09-19T09:25:50.878Z,50.74
2018-09-19T09:28:19.876Z,51.59
2018-09-19T09:30:48.881Z,51.35
2018-09-19T09:33:17.885Z,51.48
2018-09-19T09:35:46.895Z,50.87
2018-09-19T09:38:15.926Z,51.76
2018-09-19T09:40:44.947Z,50.07
2018-09-19T09:43:14.560Z,50.78
2018-09-19T09:45:43.677Z,48.88
2018-09-19T09:48:13.292Z,49.13
2018-09-19T09:50:42.306Z,47.75
2018-09-19T09:53:11.356Z,47.53
2018-09-19T09:55:40.370Z,49.32
2018-09-19T09:58:09.406Z,46.82
2018-09-19T10:00:41.657Z,47.84
2018-09-19T10:03:11.865Z,46.72
2018-09-19T10:05:41.278Z,46.57
2018-09-19T10:08:10.275Z,47.42
2018-09-19T10:10:39.597Z,45.89
2018-09-19T10:13:08.582Z,44.73
2018-09-19T10:15:37.589Z,44.02
2018-09-19T10:18:06.609Z,44.04
2018-09-19T10:20:35.618Z,43.17
2018-09-19T10:23:04.607Z,42.97
2018-09-19T10:25:33.609Z,42.26
2018-09-19T10:28:02.601Z,40.95
2018-09-19T10:30:31.599Z,42.30
2018-09-19T10:33:00.690Z,42.48
2018-09-19T10:35:29.787Z,42.38
2018-09-19T10:37:58.825Z,42.17
2018-09-19T10:40:27.863Z,41.57
2018-09-19T10:42:56.887Z,41.68
2018-09-19T10:45:25.895Z,42.06
2018-09-19T10:47:54.934Z,41.14
2018-09-19T10:50:23.957Z,40.24
2018-09-19T10:52:52.975Z,39.96
2018-09-19T10:55:21.978Z,39.73
2018-09-19T10:57:50.980Z,39.42
2018-09-19T11:00:19.982Z,38.51
2018-09-19T11:02:49.420Z,39.32
2018-09-19T11:05:18.584Z,37.59
2018-09-19T11:07:47.744Z,38.23
2018-09-19T11:10:16.735Z,38.72
2018-09-19T11:12:45.803Z,38.43
2018-09-19T11:15:14.802Z,37.96
2018-09-19T11:17:43.822Z,38.29
2018-09-19T11:20:12.875Z,36.15
2018-09-19T11:22:41.867Z,37.09
2018-09-19T11:25:10.890Z,36.89
2018-09-19T11:27:39.886Z,37.94
2018-09-19T11:30:08.890Z,37.97
2018-09-19T11:32:37.974Z,37.49
2018-09-19T11:35:07.143Z,36.94
2018-09-19T11:37:36.134Z,36.32
2018-09-19T11:40:05.299Z,35.32
2018-09-19T11:42:34.399Z,35.78
2018-09-19T11:45:03.470Z,37.46
2018-09-19T11:47:32.559Z,35.57
2018-09-19T11:50:01.684Z,35.55
2018-09-19T11:52:30.787Z,35.46
2018-09-19T11:54:59.839Z,35.58
2018-09-19T11:57:28.946Z,34.86
2018-09-19T11:59:57.957Z,35.80
2018-09-19T12:02:27.039Z,34.97
2018-09-19T12:04:56.042Z,34.61
2018-09-19T12:07:25.104Z,35.60
2018-09-19T12:09:54.242Z,35.49
2018-09-19T12:12:23.291Z,36.29
2018-09-19T12:14:52.279Z,36.17
2018-09-19T12:17:21.299Z,35.28
2018-09-19T12:19:50.401Z,35.16
2018-09-19T12:22:19.517Z,35.04
2018-09-19T12:24:48.509Z,35.14
2018-09-19T12:27:17.522Z,35.41
2018-09-19T12:29:46.578Z,35.42
2018-09-19T12:32:15.586Z,35.89
2018-09-19T12:34:44.679Z,35.33
2018-09-19T12:37:13.678Z,34.35
2018-09-19T12:39:42.750Z,35.10
2018-09-19T12:42:11.750Z,34.84
2018-09-19T12:44:40.875Z,34.20
2018-09-19T12:47:09.880Z,35.43
2018-09-19T12:49:38.881Z,34.73
2018-09-19T12:52:07.898Z,34.75
2018-09-19T12:54:36.904Z,34.56
2018-09-19T12:57:05.974Z,34.85
2018-09-19T12:59:34.934Z,34.73
2018-09-19T13:02:03.931Z,34.04
2018-09-19T13:04:32.922Z,33.76
2018-09-19T13:07:02.039Z,34.65
2018-09-19T13:09:52.377Z,34.29
2018-09-19T13:12:37.599Z,32.89
2018-09-19T13:15:15.503Z,33.76
2018-09-19T13:17:59.950Z,33.16
2018-09-19T13:20:36.850Z,32.78
2018-09-19T13:23:19.267Z,32.71
2018-09-19T13:26:00.040Z,31.90
2018-09-19T13:28:44.049Z,32.93
2018-09-19T13:31:28.073Z,32.99
2018-09-19T13:34:02.609Z,31.75
2018-09-19T13:36:40.214Z,32.65
2018-09-19T13:39:16.327Z,32.92
2018-09-19T13:41:54.221Z,32.90
2018-09-19T13:47:36.221Z,33.02
2018-09-19T13:54:32.253Z,32.55
2018-09-19T13:59:44.431Z,33.34
2018-09-19T14:02:22.218Z,32.16
2018-09-19T14:04:57.465Z,33.05
2018-09-19T14:07:35.043Z,32.99
2018-09-19T14:10:08.673Z,32.89
2018-09-19T14:12:46.725Z,32.44
2018-09-19T14:15:25.444Z,32.30
2018-09-19T14:17:59.913Z,32.40
2018-09-19T14:20:34.706Z,33.19
2018-09-19T14:23:16.115Z,32.60
2018-09-19T14:25:51.866Z,33.16
2018-09-19T14:28:31.013Z,33.76
2018-09-19T14:31:07.304Z,32.96
2018-09-19T14:33:43.577Z,33.27
2018-09-19T14:36:19.444Z,33.54
2018-09-19T14:38:59.308Z,33.37
2018-09-19T14:41:31.693Z,33.33
2018-09-19T14:44:11.205Z,33.38
2018-09-19T14:46:44.675Z,33.11
2018-09-19T14:49:23.494Z,33.44
2018-09-19T14:52:00.789Z,34.18
2018-09-19T14:54:37.773Z,34.35
2018-09-19T14:57:17.854Z,34.35
2018-09-19T15:00:17.440Z,34.92
2018-09-19T15:03:00.927Z,34.84
2018-09-19T15:05:47.761Z,34.45
2018-09-19T15:08:26.966Z,35.05
2018-09-19T15:13:54.187Z,34.67
2018-09-19T15:16:36.381Z,34.45
2018-09-19T15:19:11.761Z,34.25
2018-09-19T15:21:52.587Z,34.86
2018-09-19T15:28:05.157Z,35.07
2018-09-19T15:30:46.232Z,34.80
2018-09-19T15:33:28.341Z,35.08
2018-09-19T15:36:10.403Z,35.72
2018-09-19T15:41:52.117Z,35.67
2018-09-19T15:44:34.295Z,35.38
2018-09-19T15:50:19.082Z,35.97
2018-09-19T15:53:02.543Z,35.42
2018-09-19T15:55:51.957Z,35.19
2018-09-19T16:04:36.611Z,36.57
2018-09-19T16:07:24.639Z,35.41
2018-09-19T16:09:56.222Z,36.52
2018-09-19T16:12:25.223Z,36.33
2018-09-19T16:14:54.381Z,36.76
2018-09-19T16:17:23.438Z,35.54
2018-09-19T16:19:52.419Z,36.74
2018-09-19T16:22:21.554Z,36.44
2018-09-19T16:24:50.639Z,36.59
2018-09-19T16:27:21.220Z,36.08
2018-09-19T16:29:50.300Z,36.66
2018-09-19T16:32:19.270Z,37.19
2018-09-19T16:34:48.342Z,36.59
2018-09-19T16:37:17.343Z,36.49
2018-09-19T16:39:46.327Z,36.35
2018-09-19T16:42:15.350Z,37.07
2018-09-19T16:44:44.354Z,37.35
2018-09-19T16:47:13.418Z,37.02
2018-09-19T16:49:42.504Z,37.45
2018-09-19T16:52:11.494Z,38.08
2018-09-19T16:54:40.494Z,37.90
2018-09-19T16:57:09.490Z,37.95
2018-09-19T16:59:38.475Z,37.98
2018-09-19T17:02:07.483Z,38.79
2018-09-19T17:04:36.487Z,38.81
2018-09-19T17:07:05.535Z,39.77
2018-09-19T17:09:34.595Z,43.22
2018-09-19T17:12:03.583Z,43.72
2018-09-19T17:14:32.582Z,44.88
2018-09-19T17:17:01.571Z,45.65
2018-09-19T17:19:30.564Z,47.07
2018-09-19T17:21:59.686Z,48.10
2018-09-19T17:24:28.785Z,48.54
2018-09-19T17:26:57.807Z,50.02
2018-09-19T17:29:26.847Z,49.77
2018-09-19T17:31:55.862Z,50.08
2018-09-19T17:34:24.909Z,50.87
2018-09-19T17:36:53.898Z,51.60
2018-09-19T17:39:22.926Z,50.89
2018-09-19T17:41:51.912Z,50.96
2018-09-19T17:44:20.910Z,51.77
2018-09-19T17:46:49.907Z,52.46
2018-09-19T17:49:19.002Z,52.55
2018-09-19T17:51:48.003Z,53.98
2018-09-19T17:54:17.118Z,54.25
2018-09-19T17:56:46.108Z,54.72
2018-09-19T17:59:15.188Z,55.79
2018-09-19T18:01:44.280Z,54.33
2018-09-19T18:04:13.282Z,53.85
2018-09-19T18:06:42.290Z,54.65
2018-09-19T18:09:11.346Z,55.43
2018-09-19T18:11:40.356Z,54.41
2018-09-19T18:14:09.377Z,55.90
2018-09-19T18:16:38.464Z,55.45
2018-09-19T18:19:07.554Z,55.65
2018-09-19T18:21:36.659Z,54.50
2018-09-19T18:24:05.722Z,55.97
2018-09-19T18:26:34.731Z,56.18
2018-09-19T18:29:03.720Z,55.66
2018-09-19T18:31:32.791Z,55.96
2018-09-19T18:34:01.791Z,56.31
2018-09-19T18:36:30.806Z,55.97
2018-09-19T18:38:59.942Z,55.99
2018-09-19T18:41:28.929Z,56.38
2018-09-19T18:43:58.106Z,57.15
2018-09-19T18:46:27.131Z,57.12
2018-09-19T18:48:56.146Z,56.99
2018-09-19T18:51:25.162Z,57.47
2018-09-19T18:53:54.188Z,58.03
2018-09-19T18:56:23.256Z,58.79
2018-09-19T18:58:52.264Z,58.88
2018-09-19T19:01:21.246Z,58.62
2018-09-19T19:03:50.383Z,57.91
2018-09-19T19:06:19.379Z,59.03
2018-09-19T19:08:48.487Z,59.01
2018-09-19T19:11:17.499Z,58.21
2018-09-19T19:13:46.490Z,58.76
2018-09-19T19:16:15.566Z,58.66
2018-09-19T19:18:44.556Z,59.02
2018-09-19T19:21:13.667Z,59.55
2018-09-19T19:23:42.646Z,58.53
2018-09-19T19:26:11.645Z,59.37
2018-09-19T19:28:40.647Z,58.65
2018-09-19T19:31:09.644Z,59.42
2018-09-19T19:33:38.634Z,59.26
2018-09-19T19:36:07.622Z,59.84
2018-09-19T19:38:36.649Z,60.31
2018-09-19T19:41:05.655Z,59.89
2018-09-19T19:43:34.650Z,60.12
2018-09-19T19:46:03.671Z,60.59
2018-09-19T19:48:32.646Z,59.99
2018-09-19T19:51:01.634Z,60.57
2018-09-19T19:53:30.646Z,59.24
2018-09-19T19:55:59.782Z,60.28
2018-09-19T19:58:28.852Z,58.98
2018-09-19T20:00:57.886Z,59.19
2018-09-19T20:03:26.878Z,59.36
2018-09-19T20:05:55.869Z,59.58
2018-09-19T20:08:24.834Z,59.86
2018-09-19T20:10:53.812Z,59.48
2018-09-19T20:13:22.878Z,59.87
2018-09-19T20:15:51.900Z,60.29
2018-09-19T20:18:20.882Z,60.82
2018-09-19T20:20:49.888Z,60.75
2018-09-19T20:23:18.929Z,61.00
2018-09-19T20:25:47.810Z,61.57
2018-09-19T20:28:16.787Z,61.79
2018-09-19T20:30:45.770Z,61.86
2018-09-19T20:33:14.739Z,62.03
2018-09-19T20:35:43.718Z,62.09
2018-09-19T20:38:12.782Z,61.38
2018-09-19T20:40:41.810Z,61.92
2018-09-19T20:43:10.801Z,62.45
2018-09-19T20:45:39.794Z,62.39
2018-09-19T20:48:08.779Z,62.37
2018-09-19T20:50:37.754Z,61.96
2018-09-19T20:53:06.739Z,61.74
2018-09-19T20:55:35.714Z,62.50
2018-09-19T20:58:04.695Z,62.05
2018-09-19T21:00:33.762Z,62.74
2018-09-19T21:03:02.755Z,63.01
2018-09-19T21:05:31.735Z,63.58
2018-09-19T21:08:01.067Z,63.18
2018-09-19T21:10:30.031Z,63.77
2018-09-19T21:12:59.011Z,63.57
2018-09-19T21:15:27.990Z,64.67
2018-09-19T21:17:56.994Z,64.38
2018-09-19T21:20:25.990Z,63.63
2018-09-19T21:22:55.069Z,64.50
2018-09-19T21:25:24.050Z,64.28
2018-09-19T21:27:53.058Z,64.08
2018-09-19T21:30:22.044Z,64.69
2018-09-19T21:32:51.062Z,64.83
2018-09-19T21:35:20.055Z,65.11
2018-09-19T21:37:49.056Z,65.22
2018-09-19T21:40:18.054Z,66.00
2018-09-19T21:42:47.053Z,66.11
2018-09-19T21:45:16.055Z,66.72
2018-09-19T21:47:45.055Z,66.74
2018-09-19T21:50:14.091Z,66.22
2018-09-19T21:52:43.082Z,66.06
2018-09-19T21:55:12.070Z,66.33
2018-09-19T21:57:41.067Z,66.08
2018-09-19T22:00:10.403Z,66.01
2018-09-19T22:02:39.391Z,66.89
2018-09-19T22:05:08.416Z,66.43
2018-09-19T22:07:37.494Z,67.17
2018-09-19T22:10:06.530Z,67.40
2018-09-19T22:12:35.524Z,68.16
2018-09-19T22:15:04.816Z,67.74
2018-09-19T22:17:33.831Z,68.15
2018-09-19T22:20:02.822Z,67.97
2018-09-19T22:22:31.823Z,67.82
2018-09-19T22:25:00.819Z,68.52
2018-09-19T22:27:30.165Z,68.67
2018-09-19T22:29:59.138Z,68.38
2018-09-19T22:32:28.147Z,68.97
2018-09-19T22:34:57.134Z,69.55
2018-09-19T22:37:26.151Z,69.24
2018-09-19T22:39:55.140Z,68.49
2018-09-19T22:42:24.159Z,68.44
2018-09-19T22:44:53.190Z,68.35
2018-09-19T22:47:22.275Z,69.07
2018-09-19T22:49:51.274Z,69.35
2018-09-19T22:52:20.271Z,68.77
2018-09-19T22:54:49.277Z,68.52
2018-09-19T22:57:18.262Z,69.25
2018-09-19T22:59:47.258Z,69.72
2018-09-19T23:02:16.230Z,69.29
2018-09-19T23:04:51.469Z,69.19
2018-09-19T23:07:20.455Z,69.83
2018-09-19T23:09:49.543Z,69.82
2018-09-19T23:12:18.562Z,69.76
2018-09-19T23:14:47.570Z,70.11
2018-09-19T23:17:16.586Z,70.46
2018-09-19T23:19:45.574Z,70.17
2018-09-19T23:22:14.562Z,70.43
2018-09-19T23:24:43.579Z,70.74
2018-09-19T23:27:12.575Z,70.82
2018-09-19T23:29:41.577Z,70.82
2018-09-19T23:32:10.562Z,70.60
2018-09-19T23:34:39.572Z,71.04
2018-09-19T23:37:08.555Z,70.75
2018-09-19T23:39:37.560Z,71.03
2018-09-19T23:42:06.706Z,70.91
2018-09-19T23:44:35.706Z,71.28
2018-09-19T23:47:04.715Z,71.16
2018-09-19T23:49:33.726Z,70.90
2018-09-19T23:52:02.703Z,71.34
2018-09-19T23:54:31.790Z,71.84
2018-09-19T23:57:00.955Z,71.81
2018-09-19T23:59:30.045Z,72.03
